sensor_id;sensor_type;location;lat;lon;timestamp;pressure;altitude;pressure_sealevel;temperature;humidity
42125;BME280;27787;44.594;11.046;2023-07-31T00:00:12;100586.06;;;27.14;77.34
42125;BME280;27787;44.594;11.046;2023-07-31T00:02:56;100591.88;;;27.08;77.69
42125;BME280;27787;44.594;11.046;2023-07-31T00:05:40;100589.56;;;27.02;77.88
42125;BME280;27787;44.594;11.046;2023-07-31T00:08:24;100594.38;;;26.97;78.14
42125;BME280;27787;44.594;11.046;2023-07-31T00:11:09;100598.31;;;26.91;78.43
42125;BME280;27787;44.594;11.046;2023-07-31T00:13:53;100596.19;;;26.82;79.03
42125;BME280;27787;44.594;11.046;2023-07-31T00:16:37;100597.66;;;26.73;79.92
42125;BME280;27787;44.594;11.046;2023-07-31T00:19:21;100593.78;;;26.63;80.27
42125;BME280;27787;44.594;11.046;2023-07-31T00:22:05;100603.22;;;26.56;81.04
42125;BME280;27787;44.594;11.046;2023-07-31T00:24:50;100602.84;;;26.48;81.35
42125;BME280;27787;44.594;11.046;2023-07-31T00:27:34;100593.53;;;26.38;81.66
42125;BME280;27787;44.594;11.046;2023-07-31T00:30:18;100601.16;;;26.31;82.15
42125;BME280;27787;44.594;11.046;2023-07-31T00:33:03;100601.81;;;26.35;82.32
42125;BME280;27787;44.594;11.046;2023-07-31T00:35:48;100597.97;;;26.39;81.45
42125;BME280;27787;44.594;11.046;2023-07-31T00:38:32;100602.34;;;26.41;80.75
42125;BME280;27787;44.594;11.046;2023-07-31T00:41:17;100604.19;;;26.41;81.32
42125;BME280;27787;44.594;11.046;2023-07-31T00:44:01;100606.88;;;26.41;81.48
42125;BME280;27787;44.594;11.046;2023-07-31T00:46:46;100603.22;;;26.42;81.60
42125;BME280;27787;44.594;11.046;2023-07-31T00:49:30;100602.25;;;26.43;81.52
42125;BME280;27787;44.594;11.046;2023-07-31T00:52:14;100605.34;;;26.37;81.85
42125;BME280;27787;44.594;11.046;2023-07-31T00:54:59;100604.97;;;26.27;82.35
42125;BME280;27787;44.594;11.046;2023-07-31T00:57:43;100606.13;;;26.23;82.70
42125;BME280;27787;44.594;11.046;2023-07-31T01:00:29;100607.88;;;26.24;83.21
42125;BME280;27787;44.594;11.046;2023-07-31T01:03:14;100613.09;;;26.27;83.17
42125;BME280;27787;44.594;11.046;2023-07-31T01:09:02;100617.84;;;26.24;83.77
42125;BME280;27787;44.594;11.046;2023-07-31T01:11:52;100628.84;;;26.21;84.01
42125;BME280;27787;44.594;11.046;2023-07-31T01:14:37;100633.84;;;26.12;84.85
42125;BME280;27787;44.594;11.046;2023-07-31T01:17:21;100629.66;;;26.07;85.52
42125;BME280;27787;44.594;11.046;2023-07-31T01:20:11;100619.72;;;26.07;85.42
42125;BME280;27787;44.594;11.046;2023-07-31T01:26:21;100626.50;;;26.14;85.48
42125;BME280;27787;44.594;11.046;2023-07-31T01:31:55;100620.22;;;26.14;85.91
42125;BME280;27787;44.594;11.046;2023-07-31T01:34:41;100622.22;;;26.10;85.88
42125;BME280;27787;44.594;11.046;2023-07-31T01:37:29;100624.06;;;26.10;85.94
42125;BME280;27787;44.594;11.046;2023-07-31T01:40:13;100635.75;;;26.10;85.97
42125;BME280;27787;44.594;11.046;2023-07-31T01:42:58;100630.44;;;26.09;86.00
42125;BME280;27787;44.594;11.046;2023-07-31T01:45:42;100636.13;;;26.04;86.44
42125;BME280;27787;44.594;11.046;2023-07-31T01:48:26;100645.19;;;26.03;86.12
42125;BME280;27787;44.594;11.046;2023-07-31T01:51:11;100641.56;;;26.04;86.34
42125;BME280;27787;44.594;11.046;2023-07-31T01:53:55;100635.00;;;26.08;86.14
42125;BME280;27787;44.594;11.046;2023-07-31T01:56:39;100635.66;;;26.12;85.64
42125;BME280;27787;44.594;11.046;2023-07-31T01:59:24;100635.19;;;26.05;86.23
42125;BME280;27787;44.594;11.046;2023-07-31T02:02:08;100639.19;;;25.98;86.96
42125;BME280;27787;44.594;11.046;2023-07-31T02:04:52;100632.31;;;25.93;87.18
42125;BME280;27787;44.594;11.046;2023-07-31T02:07:36;100626.38;;;25.86;87.62
42125;BME280;27787;44.594;11.046;2023-07-31T02:10:21;100632.94;;;25.82;87.90
42125;BME280;27787;44.594;11.046;2023-07-31T02:13:05;100633.19;;;25.77;88.55
42125;BME280;27787;44.594;11.046;2023-07-31T02:15:50;100628.81;;;25.75;88.89
42125;BME280;27787;44.594;11.046;2023-07-31T02:18:34;100627.78;;;25.77;89.19
42125;BME280;27787;44.594;11.046;2023-07-31T02:21:19;100623.94;;;25.81;88.78
42125;BME280;27787;44.594;11.046;2023-07-31T02:24:04;100622.31;;;25.79;88.88
42125;BME280;27787;44.594;11.046;2023-07-31T02:26:48;100625.16;;;25.76;89.03
42125;BME280;27787;44.594;11.046;2023-07-31T02:29:33;100624.38;;;25.74;89.23
42125;BME280;27787;44.594;11.046;2023-07-31T02:32:17;100621.69;;;25.74;89.27
42125;BME280;27787;44.594;11.046;2023-07-31T02:35:01;100622.72;;;25.71;89.04
42125;BME280;27787;44.594;11.046;2023-07-31T02:37:45;100631.25;;;25.64;88.91
42125;BME280;27787;44.594;11.046;2023-07-31T02:40:30;100629.78;;;25.58;89.31
42125;BME280;27787;44.594;11.046;2023-07-31T02:43:14;100635.59;;;25.50;90.12
42125;BME280;27787;44.594;11.046;2023-07-31T02:45:59;100632.38;;;25.44;90.15
42125;BME280;27787;44.594;11.046;2023-07-31T02:48:44;100635.28;;;25.41;90.53
42125;BME280;27787;44.594;11.046;2023-07-31T02:51:29;100639.63;;;25.43;90.42
42125;BME280;27787;44.594;11.046;2023-07-31T02:54:13;100638.31;;;25.50;89.27
42125;BME280;27787;44.594;11.046;2023-07-31T02:56:57;100638.16;;;25.53;88.94
42125;BME280;27787;44.594;11.046;2023-07-31T02:59:41;100629.97;;;25.55;88.56
42125;BME280;27787;44.594;11.046;2023-07-31T03:02:25;100628.31;;;25.52;88.52
42125;BME280;27787;44.594;11.046;2023-07-31T03:05:09;100633.69;;;25.37;89.44
42125;BME280;27787;44.594;11.046;2023-07-31T03:07:54;100633.56;;;25.22;90.52
42125;BME280;27787;44.594;11.046;2023-07-31T03:10:38;100634.88;;;25.15;91.19
42125;BME280;27787;44.594;11.046;2023-07-31T03:13:23;100630.59;;;25.11;91.54
42125;BME280;27787;44.594;11.046;2023-07-31T03:16:06;100628.16;;;25.07;92.04
42125;BME280;27787;44.594;11.046;2023-07-31T03:18:50;100624.94;;;24.98;91.96
42125;BME280;27787;44.594;11.046;2023-07-31T03:21:34;100630.72;;;24.92;92.18
42125;BME280;27787;44.594;11.046;2023-07-31T03:24:18;100623.31;;;24.96;90.86
42125;BME280;27787;44.594;11.046;2023-07-31T03:27:03;100624.16;;;24.96;90.07
42125;BME280;27787;44.594;11.046;2023-07-31T03:29:47;100633.81;;;25.02;89.81
42125;BME280;27787;44.594;11.046;2023-07-31T03:32:34;100632.06;;;25.01;89.05
42125;BME280;27787;44.594;11.046;2023-07-31T03:35:18;100643.25;;;24.93;89.37
42125;BME280;27787;44.594;11.046;2023-07-31T03:38:03;100640.56;;;24.93;89.31
42125;BME280;27787;44.594;11.046;2023-07-31T03:40:48;100643.34;;;24.92;89.00
42125;BME280;27787;44.594;11.046;2023-07-31T03:43:32;100650.66;;;24.90;89.13
42125;BME280;27787;44.594;11.046;2023-07-31T03:46:17;100662.03;;;24.79;89.32
42125;BME280;27787;44.594;11.046;2023-07-31T03:49:01;100667.44;;;24.62;90.04
42125;BME280;27787;44.594;11.046;2023-07-31T03:51:46;100668.16;;;24.48;90.94
42125;BME280;27787;44.594;11.046;2023-07-31T03:54:30;100664.03;;;24.41;92.21
42125;BME280;27787;44.594;11.046;2023-07-31T03:57:14;100668.56;;;24.40;92.42
42125;BME280;27787;44.594;11.046;2023-07-31T03:59:59;100668.06;;;24.32;93.38
42125;BME280;27787;44.594;11.046;2023-07-31T04:02:43;100668.81;;;24.17;95.48
42125;BME280;27787;44.594;11.046;2023-07-31T04:05:27;100665.44;;;23.95;97.15
42125;BME280;27787;44.594;11.046;2023-07-31T04:08:11;100668.72;;;23.82;98.54
42125;BME280;27787;44.594;11.046;2023-07-31T04:10:55;100669.84;;;23.78;100.00
42125;BME280;27787;44.594;11.046;2023-07-31T04:13:39;100670.16;;;23.72;100.00
42125;BME280;27787;44.594;11.046;2023-07-31T04:16:23;100670.00;;;23.75;100.00
42125;BME280;27787;44.594;11.046;2023-07-31T04:19:07;100670.72;;;23.79;100.00
42125;BME280;27787;44.594;11.046;2023-07-31T04:21:52;100674.00;;;23.86;100.00
42125;BME280;27787;44.594;11.046;2023-07-31T04:24:36;100668.22;;;23.93;100.00
42125;BME280;27787;44.594;11.046;2023-07-31T04:27:20;100668.56;;;24.04;99.45
42125;BME280;27787;44.594;11.046;2023-07-31T04:30:05;100665.94;;;24.20;97.74
42125;BME280;27787;44.594;11.046;2023-07-31T04:32:50;100671.63;;;24.33;96.71
42125;BME280;27787;44.594;11.046;2023-07-31T04:35:34;100673.31;;;24.35;95.99
42125;BME280;27787;44.594;11.046;2023-07-31T04:38:21;100669.81;;;24.33;96.63
42125;BME280;27787;44.594;11.046;2023-07-31T04:41:06;100668.84;;;24.34;96.32
42125;BME280;27787;44.594;11.046;2023-07-31T04:43:50;100670.47;;;24.38;94.09
42125;BME280;27787;44.594;11.046;2023-07-31T04:46:34;100670.63;;;24.35;93.23
42125;BME280;27787;44.594;11.046;2023-07-31T04:49:19;100673.59;;;24.29;90.22
42125;BME280;27787;44.594;11.046;2023-07-31T04:52:04;100678.19;;;24.27;87.90
42125;BME280;27787;44.594;11.046;2023-07-31T04:54:48;100677.09;;;24.31;86.08
42125;BME280;27787;44.594;11.046;2023-07-31T04:57:32;100675.56;;;24.26;82.92
42125;BME280;27787;44.594;11.046;2023-07-31T05:00:16;100683.59;;;24.27;80.90
42125;BME280;27787;44.594;11.046;2023-07-31T05:03:01;100680.81;;;24.29;79.41
42125;BME280;27787;44.594;11.046;2023-07-31T05:05:45;100678.97;;;24.29;78.24
42125;BME280;27787;44.594;11.046;2023-07-31T05:08:29;100688.19;;;24.25;76.89
42125;BME280;27787;44.594;11.046;2023-07-31T05:11:13;100690.59;;;24.31;77.00
42125;BME280;27787;44.594;11.046;2023-07-31T05:13:57;100694.91;;;24.35;77.17
42125;BME280;27787;44.594;11.046;2023-07-31T05:16:41;100686.00;;;24.33;76.41
42125;BME280;27787;44.594;11.046;2023-07-31T05:19:25;100699.19;;;24.39;77.18
42125;BME280;27787;44.594;11.046;2023-07-31T05:22:09;100694.75;;;24.38;76.37
42125;BME280;27787;44.594;11.046;2023-07-31T05:24:53;100700.22;;;24.37;76.58
42125;BME280;27787;44.594;11.046;2023-07-31T05:27:38;100704.88;;;24.33;76.67
42125;BME280;27787;44.594;11.046;2023-07-31T05:30:22;100702.06;;;24.36;76.17
42125;BME280;27787;44.594;11.046;2023-07-31T05:33:06;100707.19;;;24.41;76.11
42125;BME280;27787;44.594;11.046;2023-07-31T05:35:50;100713.47;;;24.41;75.88
42125;BME280;27787;44.594;11.046;2023-07-31T05:38:34;100710.06;;;24.38;76.26
42125;BME280;27787;44.594;11.046;2023-07-31T05:41:18;100710.94;;;24.38;76.61
42125;BME280;27787;44.594;11.046;2023-07-31T05:44:03;100706.16;;;24.44;76.94
42125;BME280;27787;44.594;11.046;2023-07-31T05:46:47;100708.06;;;24.59;77.35
42125;BME280;27787;44.594;11.046;2023-07-31T05:49:31;100708.72;;;24.64;76.28
42125;BME280;27787;44.594;11.046;2023-07-31T05:52:15;100712.22;;;24.66;76.11
42125;BME280;27787;44.594;11.046;2023-07-31T05:55:00;100716.41;;;24.71;76.12
42125;BME280;27787;44.594;11.046;2023-07-31T05:57:45;100719.13;;;24.71;75.44
42125;BME280;27787;44.594;11.046;2023-07-31T06:00:29;100718.25;;;24.71;75.29
42125;BME280;27787;44.594;11.046;2023-07-31T06:03:13;100717.16;;;24.75;75.54
42125;BME280;27787;44.594;11.046;2023-07-31T06:05:57;100718.72;;;24.79;75.74
42125;BME280;27787;44.594;11.046;2023-07-31T06:08:41;100721.00;;;24.87;75.46
42125;BME280;27787;44.594;11.046;2023-07-31T06:11:25;100713.47;;;24.93;75.60
42125;BME280;27787;44.594;11.046;2023-07-31T06:14:10;100710.16;;;25.06;74.99
42125;BME280;27787;44.594;11.046;2023-07-31T06:16:54;100715.22;;;25.12;75.17
42125;BME280;27787;44.594;11.046;2023-07-31T06:19:38;100719.44;;;25.17;75.04
42125;BME280;27787;44.594;11.046;2023-07-31T06:22:22;100727.63;;;25.16;75.72
42125;BME280;27787;44.594;11.046;2023-07-31T06:25:06;100723.97;;;25.17;76.59
42125;BME280;27787;44.594;11.046;2023-07-31T06:27:50;100729.19;;;25.20;76.60
42125;BME280;27787;44.594;11.046;2023-07-31T06:30:35;100726.09;;;25.27;76.69
42125;BME280;27787;44.594;11.046;2023-07-31T06:33:19;100723.75;;;25.37;77.42
42125;BME280;27787;44.594;11.046;2023-07-31T06:36:03;100725.44;;;25.40;76.03
42125;BME280;27787;44.594;11.046;2023-07-31T06:38:47;100731.69;;;25.40;75.28
42125;BME280;27787;44.594;11.046;2023-07-31T06:41:31;100737.97;;;25.41;74.70
42125;BME280;27787;44.594;11.046;2023-07-31T06:44:15;100739.56;;;25.45;75.06
42125;BME280;27787;44.594;11.046;2023-07-31T06:47:00;100741.84;;;25.52;74.92
42125;BME280;27787;44.594;11.046;2023-07-31T06:49:44;100748.66;;;25.59;75.71
42125;BME280;27787;44.594;11.046;2023-07-31T06:52:28;100742.09;;;25.64;76.77
42125;BME280;27787;44.594;11.046;2023-07-31T06:55:17;100746.25;;;25.71;76.83
42125;BME280;27787;44.594;11.046;2023-07-31T06:58:05;100741.44;;;25.76;77.68
42125;BME280;27787;44.594;11.046;2023-07-31T07:00:49;100739.47;;;25.79;78.35
42125;BME280;27787;44.594;11.046;2023-07-31T07:03:34;100741.81;;;25.85;79.18
42125;BME280;27787;44.594;11.046;2023-07-31T07:06:18;100740.66;;;25.90;78.66
42125;BME280;27787;44.594;11.046;2023-07-31T07:09:03;100742.19;;;25.95;78.28
42125;BME280;27787;44.594;11.046;2023-07-31T07:11:48;100745.38;;;26.02;78.25
42125;BME280;27787;44.594;11.046;2023-07-31T07:14:32;100746.97;;;26.06;78.05
42125;BME280;27787;44.594;11.046;2023-07-31T07:17:16;100739.56;;;26.09;77.07
42125;BME280;27787;44.594;11.046;2023-07-31T07:20:00;100739.19;;;26.15;77.12
42125;BME280;27787;44.594;11.046;2023-07-31T07:22:45;100738.06;;;26.20;76.63
42125;BME280;27787;44.594;11.046;2023-07-31T07:25:30;100739.72;;;26.22;76.56
42125;BME280;27787;44.594;11.046;2023-07-31T07:28:14;100743.78;;;26.29;76.75
42125;BME280;27787;44.594;11.046;2023-07-31T07:30:58;100732.91;;;26.31;75.71
42125;BME280;27787;44.594;11.046;2023-07-31T07:33:43;100734.56;;;26.33;76.05
42125;BME280;27787;44.594;11.046;2023-07-31T07:36:28;100738.50;;;26.43;75.95
42125;BME280;27787;44.594;11.046;2023-07-31T07:39:12;100739.78;;;26.52;75.30
42125;BME280;27787;44.594;11.046;2023-07-31T07:41:56;100740.38;;;26.57;75.06
42125;BME280;27787;44.594;11.046;2023-07-31T07:44:40;100742.72;;;26.63;74.63
42125;BME280;27787;44.594;11.046;2023-07-31T07:47:25;100740.25;;;26.74;74.11
42125;BME280;27787;44.594;11.046;2023-07-31T07:50:09;100745.13;;;26.84;73.40
42125;BME280;27787;44.594;11.046;2023-07-31T07:52:53;100752.84;;;26.90;73.68
42125;BME280;27787;44.594;11.046;2023-07-31T07:55:37;100756.53;;;26.89;72.70
42125;BME280;27787;44.594;11.046;2023-07-31T07:58:22;100756.25;;;26.93;72.84
42125;BME280;27787;44.594;11.046;2023-07-31T08:01:06;100758.59;;;26.99;73.02
42125;BME280;27787;44.594;11.046;2023-07-31T08:03:50;100762.00;;;27.03;72.56
42125;BME280;27787;44.594;11.046;2023-07-31T08:06:34;100755.38;;;27.09;72.92
42125;BME280;27787;44.594;11.046;2023-07-31T08:09:18;100757.88;;;27.12;73.08
42125;BME280;27787;44.594;11.046;2023-07-31T08:12:03;100750.00;;;27.07;73.13
42125;BME280;27787;44.594;11.046;2023-07-31T08:14:47;100753.78;;;27.04;73.96
42125;BME280;27787;44.594;11.046;2023-07-31T08:17:32;100746.53;;;27.05;74.69
42125;BME280;27787;44.594;11.046;2023-07-31T08:20:16;100750.81;;;27.09;74.86
42125;BME280;27787;44.594;11.046;2023-07-31T08:23:00;100743.47;;;27.11;74.98
42125;BME280;27787;44.594;11.046;2023-07-31T08:25:45;100743.84;;;27.19;74.96
42125;BME280;27787;44.594;11.046;2023-07-31T08:28:29;100745.22;;;27.26;74.42
42125;BME280;27787;44.594;11.046;2023-07-31T08:31:13;100737.56;;;27.33;74.44
42125;BME280;27787;44.594;11.046;2023-07-31T08:33:57;100739.38;;;27.32;75.05
42125;BME280;27787;44.594;11.046;2023-07-31T08:36:41;100743.38;;;27.27;75.41
42125;BME280;27787;44.594;11.046;2023-07-31T08:39:25;100732.72;;;27.24;75.91
42125;BME280;27787;44.594;11.046;2023-07-31T08:42:09;100730.03;;;27.24;76.27
42125;BME280;27787;44.594;11.046;2023-07-31T08:44:55;100722.47;;;27.29;76.04
42125;BME280;27787;44.594;11.046;2023-07-31T08:47:41;100726.53;;;27.36;75.63
42125;BME280;27787;44.594;11.046;2023-07-31T08:50:26;100730.50;;;27.45;75.33
42125;BME280;27787;44.594;11.046;2023-07-31T08:53:11;100739.78;;;27.55;75.88
42125;BME280;27787;44.594;11.046;2023-07-31T08:55:56;100740.00;;;27.52;76.59
42125;BME280;27787;44.594;11.046;2023-07-31T08:58:43;100738.72;;;27.43;77.63
42125;BME280;27787;44.594;11.046;2023-07-31T09:01:29;100731.16;;;27.34;77.87
42125;BME280;27787;44.594;11.046;2023-07-31T09:04:14;100727.31;;;27.24;78.18
42125;BME280;27787;44.594;11.046;2023-07-31T09:07:02;100733.97;;;27.18;79.31
42125;BME280;27787;44.594;11.046;2023-07-31T09:09:48;100727.88;;;27.15;80.38
42125;BME280;27787;44.594;11.046;2023-07-31T09:12:33;100735.53;;;27.22;79.75
42125;BME280;27787;44.594;11.046;2023-07-31T09:15:17;100730.13;;;27.22;80.13
42125;BME280;27787;44.594;11.046;2023-07-31T09:18:02;100733.38;;;27.13;80.67
42125;BME280;27787;44.594;11.046;2023-07-31T09:21:00;100737.06;;;27.12;80.15
42125;BME280;27787;44.594;11.046;2023-07-31T09:23:46;100737.94;;;27.13;79.52
42125;BME280;27787;44.594;11.046;2023-07-31T09:26:36;100723.72;;;27.09;78.55
42125;BME280;27787;44.594;11.046;2023-07-31T09:29:20;100721.78;;;27.11;79.00
42125;BME280;27787;44.594;11.046;2023-07-31T09:32:16;100717.03;;;27.15;78.76
42125;BME280;27787;44.594;11.046;2023-07-31T09:35:01;100715.00;;;27.18;77.66
42125;BME280;27787;44.594;11.046;2023-07-31T09:37:49;100721.78;;;27.25;76.96
42125;BME280;27787;44.594;11.046;2023-07-31T09:40:35;100721.38;;;27.31;77.11
42125;BME280;27787;44.594;11.046;2023-07-31T09:43:21;100715.78;;;27.35;76.78
42125;BME280;27787;44.594;11.046;2023-07-31T09:46:13;100712.78;;;27.39;76.14
42125;BME280;27787;44.594;11.046;2023-07-31T09:49:08;100713.34;;;27.44;76.26
42125;BME280;27787;44.594;11.046;2023-07-31T09:51:55;100703.19;;;27.48;76.02
42125;BME280;27787;44.594;11.046;2023-07-31T09:54:39;100714.59;;;27.53;76.98
42125;BME280;27787;44.594;11.046;2023-07-31T09:57:23;100705.50;;;27.54;76.84
42125;BME280;27787;44.594;11.046;2023-07-31T10:00:10;100708.97;;;27.56;76.39
42125;BME280;27787;44.594;11.046;2023-07-31T10:03:00;100710.81;;;27.55;76.10
42125;BME280;27787;44.594;11.046;2023-07-31T10:05:53;100702.69;;;27.55;75.87
42125;BME280;27787;44.594;11.046;2023-07-31T10:08:39;100704.22;;;27.59;75.84
42125;BME280;27787;44.594;11.046;2023-07-31T10:11:26;100710.94;;;27.68;75.76
42125;BME280;27787;44.594;11.046;2023-07-31T10:14:12;100701.44;;;27.75;75.37
42125;BME280;27787;44.594;11.046;2023-07-31T10:16:57;100704.41;;;27.85;76.06
42125;BME280;27787;44.594;11.046;2023-07-31T10:19:43;100699.78;;;27.87;75.41
42125;BME280;27787;44.594;11.046;2023-07-31T10:22:28;100698.81;;;27.88;74.74
42125;BME280;27787;44.594;11.046;2023-07-31T10:25:15;100696.97;;;27.88;73.30
42125;BME280;27787;44.594;11.046;2023-07-31T10:27:59;100694.44;;;27.85;73.38
42125;BME280;27787;44.594;11.046;2023-07-31T10:30:44;100684.38;;;27.87;72.81
42125;BME280;27787;44.594;11.046;2023-07-31T10:33:29;100681.44;;;27.90;73.00
42125;BME280;27787;44.594;11.046;2023-07-31T10:36:20;100678.53;;;27.94;73.33
42125;BME280;27787;44.594;11.046;2023-07-31T10:39:04;100680.91;;;27.98;72.83
42125;BME280;27787;44.594;11.046;2023-07-31T10:42:12;100678.19;;;27.98;72.72
42125;BME280;27787;44.594;11.046;2023-07-31T10:45:05;100678.19;;;27.98;72.63
42125;BME280;27787;44.594;11.046;2023-07-31T10:47:58;100678.31;;;27.97;73.08
42125;BME280;27787;44.594;11.046;2023-07-31T10:50:56;100672.00;;;27.96;71.83
42125;BME280;27787;44.594;11.046;2023-07-31T10:53:40;100676.94;;;28.04;71.74
42125;BME280;27787;44.594;11.046;2023-07-31T10:56:25;100672.81;;;28.11;70.41
42125;BME280;27787;44.594;11.046;2023-07-31T10:59:09;100678.06;;;28.14;71.35
42125;BME280;27787;44.594;11.046;2023-07-31T11:01:56;100670.13;;;28.11;70.52
42125;BME280;27787;44.594;11.046;2023-07-31T11:04:41;100667.72;;;28.06;70.61
42125;BME280;27787;44.594;11.046;2023-07-31T11:07:25;100667.59;;;28.08;71.01
42125;BME280;27787;44.594;11.046;2023-07-31T11:10:09;100671.97;;;28.10;70.10
42125;BME280;27787;44.594;11.046;2023-07-31T11:12:53;100665.16;;;28.17;69.67
42125;BME280;27787;44.594;11.046;2023-07-31T11:15:37;100666.47;;;28.25;69.56
42125;BME280;27787;44.594;11.046;2023-07-31T11:18:22;100661.75;;;28.28;69.16
42125;BME280;27787;44.594;11.046;2023-07-31T11:21:07;100662.84;;;28.38;68.05
42125;BME280;27787;44.594;11.046;2023-07-31T11:23:53;100655.91;;;28.47;67.04
42125;BME280;27787;44.594;11.046;2023-07-31T11:26:38;100660.38;;;28.48;68.00
42125;BME280;27787;44.594;11.046;2023-07-31T11:29:27;100646.50;;;28.53;68.59
42125;BME280;27787;44.594;11.046;2023-07-31T11:32:16;100650.16;;;28.52;68.10
42125;BME280;27787;44.594;11.046;2023-07-31T11:35:01;100645.63;;;28.52;67.47
42125;BME280;27787;44.594;11.046;2023-07-31T11:37:45;100641.81;;;28.55;67.12
42125;BME280;27787;44.594;11.046;2023-07-31T11:40:29;100637.91;;;28.59;67.06
42125;BME280;27787;44.594;11.046;2023-07-31T11:43:13;100634.84;;;28.63;66.59
42125;BME280;27787;44.594;11.046;2023-07-31T11:46:02;100620.97;;;28.68;65.36
42125;BME280;27787;44.594;11.046;2023-07-31T11:48:47;100623.34;;;28.72;64.42
42125;BME280;27787;44.594;11.046;2023-07-31T11:51:32;100620.09;;;28.80;65.25
42125;BME280;27787;44.594;11.046;2023-07-31T11:54:16;100613.34;;;28.86;64.84
42125;BME280;27787;44.594;11.046;2023-07-31T11:57:01;100613.16;;;28.89;65.73
42125;BME280;27787;44.594;11.046;2023-07-31T11:59:46;100610.13;;;28.93;65.66
42125;BME280;27787;44.594;11.046;2023-07-31T12:02:30;100596.53;;;28.93;64.96
42125;BME280;27787;44.594;11.046;2023-07-31T12:05:14;100593.81;;;28.93;65.35
42125;BME280;27787;44.594;11.046;2023-07-31T12:07:59;100593.59;;;28.96;65.41
42125;BME280;27787;44.594;11.046;2023-07-31T12:10:43;100584.47;;;28.97;64.84
42125;BME280;27787;44.594;11.046;2023-07-31T12:13:30;100580.53;;;29.01;64.75
42125;BME280;27787;44.594;11.046;2023-07-31T12:16:15;100581.19;;;29.05;65.42
42125;BME280;27787;44.594;11.046;2023-07-31T12:18:59;100579.66;;;29.14;65.54
42125;BME280;27787;44.594;11.046;2023-07-31T12:21:44;100571.16;;;29.18;64.17
42125;BME280;27787;44.594;11.046;2023-07-31T12:24:28;100571.34;;;29.28;62.73
42125;BME280;27787;44.594;11.046;2023-07-31T12:27:14;100559.47;;;29.29;62.67
42125;BME280;27787;44.594;11.046;2023-07-31T12:29:58;100567.56;;;29.30;62.56
42125;BME280;27787;44.594;11.046;2023-07-31T12:32:42;100565.59;;;29.32;62.75
42125;BME280;27787;44.594;11.046;2023-07-31T12:35:35;100566.34;;;29.34;62.87
42125;BME280;27787;44.594;11.046;2023-07-31T12:38:19;100562.63;;;29.35;63.10
42125;BME280;27787;44.594;11.046;2023-07-31T12:41:04;100549.13;;;29.47;61.41
42125;BME280;27787;44.594;11.046;2023-07-31T12:43:50;100542.13;;;29.43;61.64
42125;BME280;27787;44.594;11.046;2023-07-31T12:46:34;100538.13;;;29.48;62.30
42125;BME280;27787;44.594;11.046;2023-07-31T12:49:18;100535.91;;;29.53;62.54
42125;BME280;27787;44.594;11.046;2023-07-31T12:52:02;100547.78;;;29.52;62.32
42125;BME280;27787;44.594;11.046;2023-07-31T12:54:47;100537.34;;;29.46;62.16
42125;BME280;27787;44.594;11.046;2023-07-31T12:57:31;100524.84;;;29.44;62.35
42125;BME280;27787;44.594;11.046;2023-07-31T13:00:15;100520.50;;;29.41;62.03
42125;BME280;27787;44.594;11.046;2023-07-31T13:03:00;100515.81;;;29.43;62.26
42125;BME280;27787;44.594;11.046;2023-07-31T13:05:44;100515.16;;;29.52;62.49
42125;BME280;27787;44.594;11.046;2023-07-31T13:08:29;100516.94;;;29.64;61.92
42125;BME280;27787;44.594;11.046;2023-07-31T13:11:13;100498.69;;;29.78;61.69
42125;BME280;27787;44.594;11.046;2023-07-31T13:13:57;100501.94;;;29.83;59.77
42125;BME280;27787;44.594;11.046;2023-07-31T13:16:42;100509.84;;;29.86;59.65
42125;BME280;27787;44.594;11.046;2023-07-31T13:19:26;100500.47;;;29.90;58.87
42125;BME280;27787;44.594;11.046;2023-07-31T13:22:11;100505.44;;;29.96;58.93
42125;BME280;27787;44.594;11.046;2023-07-31T13:24:55;100494.25;;;30.12;55.90
42125;BME280;27787;44.594;11.046;2023-07-31T13:27:39;100501.06;;;30.17;57.09
42125;BME280;27787;44.594;11.046;2023-07-31T13:30:24;100491.78;;;30.20;57.41
42125;BME280;27787;44.594;11.046;2023-07-31T13:33:08;100479.66;;;30.24;57.42
42125;BME280;27787;44.594;11.046;2023-07-31T13:35:52;100478.69;;;30.36;57.68
42125;BME280;27787;44.594;11.046;2023-07-31T13:38:36;100470.28;;;30.50;57.97
42125;BME280;27787;44.594;11.046;2023-07-31T13:41:21;100468.19;;;30.65;57.03
42125;BME280;27787;44.594;11.046;2023-07-31T13:44:05;100461.03;;;30.75;56.08
42125;BME280;27787;44.594;11.046;2023-07-31T13:46:49;100455.66;;;30.85;55.16
42125;BME280;27787;44.594;11.046;2023-07-31T13:49:33;100454.31;;;30.91;54.47
42125;BME280;27787;44.594;11.046;2023-07-31T13:52:17;100459.09;;;30.98;54.95
42125;BME280;27787;44.594;11.046;2023-07-31T13:55:01;100451.75;;;31.10;53.52
42125;BME280;27787;44.594;11.046;2023-07-31T13:57:46;100455.50;;;30.98;53.00
42125;BME280;27787;44.594;11.046;2023-07-31T14:00:31;100454.16;;;30.92;54.02
42125;BME280;27787;44.594;11.046;2023-07-31T14:03:16;100444.59;;;30.98;53.69
42125;BME280;27787;44.594;11.046;2023-07-31T14:06:00;100443.09;;;31.16;54.11
42125;BME280;27787;44.594;11.046;2023-07-31T14:08:44;100442.56;;;31.33;52.83
42125;BME280;27787;44.594;11.046;2023-07-31T14:11:28;100442.28;;;31.36;52.75
42125;BME280;27787;44.594;11.046;2023-07-31T14:14:13;100438.09;;;31.32;52.38
42125;BME280;27787;44.594;11.046;2023-07-31T14:16:57;100442.53;;;31.45;52.39
42125;BME280;27787;44.594;11.046;2023-07-31T14:19:41;100442.59;;;31.54;51.29